Oxnard Airport
KOXR : now visible

Airfield :











YOU CAN JOIN US ON...

 
LOGIN :

Register | Disclaimer

   EN    FR    IT 

 









Legend :    VFR   Marginal VFR   IFR   Intensive IFR   Very Intensive IFR
Visi :
Ceiling :
>= 8 km
>= 3000ft
5 to 8 km
1000 to 3000 ft
1500m to 5 km
500 to 1000 ft
800 to 1500m
200 to 500 ft
< 800m
< 200 ft
Symbols :   Thunderstorms  Fog  Heavy snow  Heavy precipitations  Wind > 20 kt






- Airport Elevation : 45 ft


KOXR - Oxnard

CURRENT METAR :
  • 131617Z 00000KT 10SM OVC005 16/14 A2994 RMK AO2 CIG 003V007 T01610139

EXPIRED METARs :
  • 131551Z 25006KT 3SM BR OVC003 15/14 A2994 RMK AO2 SLP137 T01500139
  • 131544Z 24006KT 3SM BR OVC003 15/14 A2994 RMK AO2 T01500139
  • 131521Z 25007KT 3SM BR OVC005 15/14 A2992 RMK AO2 T01500139
  • 131451Z 00000KT 3SM BR OVC003 15/14 A2991 RMK AO2 SLP127 T01500144 53013
  • 131351Z 06004KT 2SM BR OVC003 14/14 A2988 RMK AO2 SLP117 T01440139

TAF KOXR
Valid from the 13 at 15:00 until the 14 at 12:00 UTC


131504Z 1315/1412 VRB05KT 3SM BR OVC003
TEMPO 1315/1316 1SM BR
FM131700 25007KT P6SM BKN008
FM131900 26012KT P6SM SKC
FM140400 VRB03KT P6SM SKC
KZLA FIR / North America



MET'MAP, your aeronautical weather chart ! - Copyright ORBIFLY December 2007 - Disclaimer

ORBIFLY MET'MAP TEAM :

Programming & Development : Alexandra Zaïnal
Concept & original design : Baudouin d'Aumeries
Assistance for programming : Marc-Olivier Méhu
Technical & hardware support : Manuel Goepfert

Contact : metmap@orbifly.com




SOURCES & CREDITS :

   NOAA       Earth
Advisory